sensor_id;sensor_type;location;lat;lon;timestamp;temperature;humidity
46898;DHT22;32646;50.958;6.258;2023-06-22T00:00:59;21.30;90.00
46898;DHT22;32646;50.958;6.258;2023-06-22T00:03:26;21.30;90.10
46898;DHT22;32646;50.958;6.258;2023-06-22T00:05:53;21.40;88.90
46898;DHT22;32646;50.958;6.258;2023-06-22T00:08:19;21.30;89.20
46898;DHT22;32646;50.958;6.258;2023-06-22T00:10:46;21.30;89.30
46898;DHT22;32646;50.958;6.258;2023-06-22T00:13:13;21.10;88.40
46898;DHT22;32646;50.958;6.258;2023-06-22T00:15:41;21.20;89.10
46898;DHT22;32646;50.958;6.258;2023-06-22T00:18:08;21.10;88.60
46898;DHT22;32646;50.958;6.258;2023-06-22T00:20:36;21.00;88.80
46898;DHT22;32646;50.958;6.258;2023-06-22T00:23:04;21.00;90.10
46898;DHT22;32646;50.958;6.258;2023-06-22T00:25:31;20.90;90.20
46898;DHT22;32646;50.958;6.258;2023-06-22T00:27:57;20.90;89.40
46898;DHT22;32646;50.958;6.258;2023-06-22T00:30:24;20.80;90.30
46898;DHT22;32646;50.958;6.258;2023-06-22T00:32:51;20.80;90.30
46898;DHT22;32646;50.958;6.258;2023-06-22T00:35:17;20.70;90.20
46898;DHT22;32646;50.958;6.258;2023-06-22T00:37:44;20.70;90.80
46898;DHT22;32646;50.958;6.258;2023-06-22T00:40:11;20.70;91.00
46898;DHT22;32646;50.958;6.258;2023-06-22T00:42:38;20.70;91.80
46898;DHT22;32646;50.958;6.258;2023-06-22T00:45:06;20.70;92.30
46898;DHT22;32646;50.958;6.258;2023-06-22T00:47:34;20.70;94.10
46898;DHT22;32646;50.958;6.258;2023-06-22T00:50:03;20.60;96.70
46898;DHT22;32646;50.958;6.258;2023-06-22T00:52:33;20.50;99.30
46898;DHT22;32646;50.958;6.258;2023-06-22T00:55:01;20.30;99.90
46898;DHT22;32646;50.958;6.258;2023-06-22T00:57:28;20.10;99.90
46898;DHT22;32646;50.958;6.258;2023-06-22T00:59:55;20.00;99.90
46898;DHT22;32646;50.958;6.258;2023-06-22T01:02:22;19.90;99.90
46898;DHT22;32646;50.958;6.258;2023-06-22T01:04:49;19.90;99.90
46898;DHT22;32646;50.958;6.258;2023-06-22T01:07:34;20.00;99.90
46898;DHT22;32646;50.958;6.258;2023-06-22T01:12:55;20.20;99.30
46898;DHT22;32646;50.958;6.258;2023-06-22T01:15:30;20.20;98.50
46898;DHT22;32646;50.958;6.258;2023-06-22T01:17:57;20.30;98.20
46898;DHT22;32646;50.958;6.258;2023-06-22T01:20:25;20.30;98.50
46898;DHT22;32646;50.958;6.258;2023-06-22T01:23:06;20.40;98.70
46898;DHT22;32646;50.958;6.258;2023-06-22T01:25:47;20.30;99.90
46898;DHT22;32646;50.958;6.258;2023-06-22T01:28:52;20.20;99.90
46898;DHT22;32646;50.958;6.258;2023-06-22T01:31:21;20.40;98.30
46898;DHT22;32646;50.958;6.258;2023-06-22T01:33:53;20.30;98.90
46898;DHT22;32646;50.958;6.258;2023-06-22T01:36:21;20.30;98.90
46898;DHT22;32646;50.958;6.258;2023-06-22T01:38:49;20.40;98.00
46898;DHT22;32646;50.958;6.258;2023-06-22T01:41:17;20.40;97.80
46898;DHT22;32646;50.958;6.258;2023-06-22T01:43:44;20.50;97.70
46898;DHT22;32646;50.958;6.258;2023-06-22T01:46:12;20.50;98.00
46898;DHT22;32646;50.958;6.258;2023-06-22T01:48:39;20.50;97.70
46898;DHT22;32646;50.958;6.258;2023-06-22T01:51:06;20.60;97.50
46898;DHT22;32646;50.958;6.258;2023-06-22T01:53:33;20.60;97.60
46898;DHT22;32646;50.958;6.258;2023-06-22T01:55:59;20.60;97.60
46898;DHT22;32646;50.958;6.258;2023-06-22T01:58:27;20.60;98.50
46898;DHT22;32646;50.958;6.258;2023-06-22T02:01:11;20.60;97.90
46898;DHT22;32646;50.958;6.258;2023-06-22T02:03:47;20.70;97.60
46898;DHT22;32646;50.958;6.258;2023-06-22T02:06:23;20.70;97.90
46898;DHT22;32646;50.958;6.258;2023-06-22T02:09:01;20.60;97.60
46898;DHT22;32646;50.958;6.258;2023-06-22T02:11:29;20.60;98.00
46898;DHT22;32646;50.958;6.258;2023-06-22T02:13:57;20.60;97.90
46898;DHT22;32646;50.958;6.258;2023-06-22T02:16:25;20.70;97.80
46898;DHT22;32646;50.958;6.258;2023-06-22T02:18:51;20.60;98.30
46898;DHT22;32646;50.958;6.258;2023-06-22T02:21:19;20.60;98.60
46898;DHT22;32646;50.958;6.258;2023-06-22T02:23:45;20.60;98.50
46898;DHT22;32646;50.958;6.258;2023-06-22T02:26:13;20.60;98.10
46898;DHT22;32646;50.958;6.258;2023-06-22T02:28:39;20.60;98.40
46898;DHT22;32646;50.958;6.258;2023-06-22T02:31:06;20.60;98.80
46898;DHT22;32646;50.958;6.258;2023-06-22T02:33:33;20.70;98.70
46898;DHT22;32646;50.958;6.258;2023-06-22T02:35:59;20.60;98.90
46898;DHT22;32646;50.958;6.258;2023-06-22T02:38:26;20.60;99.30
46898;DHT22;32646;50.958;6.258;2023-06-22T02:40:53;20.50;99.50
46898;DHT22;32646;50.958;6.258;2023-06-22T02:43:19;20.50;99.80
46898;DHT22;32646;50.958;6.258;2023-06-22T02:45:46;20.60;99.90
46898;DHT22;32646;50.958;6.258;2023-06-22T02:48:12;20.50;99.90
46898;DHT22;32646;50.958;6.258;2023-06-22T02:50:39;20.40;99.90
46898;DHT22;32646;50.958;6.258;2023-06-22T02:53:06;20.40;99.90
46898;DHT22;32646;50.958;6.258;2023-06-22T02:55:32;20.40;99.90
46898;DHT22;32646;50.958;6.258;2023-06-22T02:57:59;20.40;99.90
46898;DHT22;32646;50.958;6.258;2023-06-22T03:00:25;20.40;99.90
46898;DHT22;32646;50.958;6.258;2023-06-22T03:02:52;20.40;99.90
46898;DHT22;32646;50.958;6.258;2023-06-22T03:05:19;20.40;99.90
46898;DHT22;32646;50.958;6.258;2023-06-22T03:07:46;20.40;99.90
46898;DHT22;32646;50.958;6.258;2023-06-22T03:10:13;20.50;99.90
46898;DHT22;32646;50.958;6.258;2023-06-22T03:12:41;20.40;99.90
46898;DHT22;32646;50.958;6.258;2023-06-22T03:15:10;20.40;99.90
46898;DHT22;32646;50.958;6.258;2023-06-22T03:17:38;20.50;99.90
46898;DHT22;32646;50.958;6.258;2023-06-22T03:20:06;20.50;99.90
46898;DHT22;32646;50.958;6.258;2023-06-22T03:22:32;20.40;99.90
46898;DHT22;32646;50.958;6.258;2023-06-22T03:24:59;20.50;99.90
46898;DHT22;32646;50.958;6.258;2023-06-22T03:27:25;20.50;99.90
46898;DHT22;32646;50.958;6.258;2023-06-22T03:29:52;20.50;99.90
46898;DHT22;32646;50.958;6.258;2023-06-22T03:32:19;20.40;99.90
46898;DHT22;32646;50.958;6.258;2023-06-22T03:34:45;20.40;99.90
46898;DHT22;32646;50.958;6.258;2023-06-22T03:37:13;20.40;99.90
46898;DHT22;32646;50.958;6.258;2023-06-22T03:39:40;20.40;99.90
46898;DHT22;32646;50.958;6.258;2023-06-22T03:42:07;20.40;99.90
46898;DHT22;32646;50.958;6.258;2023-06-22T03:44:34;20.50;99.90
46898;DHT22;32646;50.958;6.258;2023-06-22T03:47:00;20.50;99.90
46898;DHT22;32646;50.958;6.258;2023-06-22T03:49:27;20.50;99.90
46898;DHT22;32646;50.958;6.258;2023-06-22T03:51:54;20.50;99.90
46898;DHT22;32646;50.958;6.258;2023-06-22T03:54:20;20.60;99.90
46898;DHT22;32646;50.958;6.258;2023-06-22T03:56:47;20.50;99.90
46898;DHT22;32646;50.958;6.258;2023-06-22T03:59:13;20.40;99.90
46898;DHT22;32646;50.958;6.258;2023-06-22T04:01:40;20.40;99.90
46898;DHT22;32646;50.958;6.258;2023-06-22T04:04:07;20.40;99.90
46898;DHT22;32646;50.958;6.258;2023-06-22T04:06:33;20.20;99.90
46898;DHT22;32646;50.958;6.258;2023-06-22T04:09:00;20.20;99.90
46898;DHT22;32646;50.958;6.258;2023-06-22T04:11:26;20.20;99.90
46898;DHT22;32646;50.958;6.258;2023-06-22T04:13:53;20.20;99.90
46898;DHT22;32646;50.958;6.258;2023-06-22T04:16:20;20.20;99.90
46898;DHT22;32646;50.958;6.258;2023-06-22T04:18:46;20.20;99.90
46898;DHT22;32646;50.958;6.258;2023-06-22T04:21:13;20.20;99.90
46898;DHT22;32646;50.958;6.258;2023-06-22T04:23:40;20.20;99.90
46898;DHT22;32646;50.958;6.258;2023-06-22T04:26:06;20.30;99.90
46898;DHT22;32646;50.958;6.258;2023-06-22T04:28:33;20.30;99.90
46898;DHT22;32646;50.958;6.258;2023-06-22T04:31:00;20.40;99.90
46898;DHT22;32646;50.958;6.258;2023-06-22T04:33:26;20.40;99.90
46898;DHT22;32646;50.958;6.258;2023-06-22T04:35:53;20.40;99.90
46898;DHT22;32646;50.958;6.258;2023-06-22T04:38:20;20.40;99.90
46898;DHT22;32646;50.958;6.258;2023-06-22T04:40:46;20.40;99.90
46898;DHT22;32646;50.958;6.258;2023-06-22T04:43:13;20.40;99.90
46898;DHT22;32646;50.958;6.258;2023-06-22T04:45:39;20.40;99.90
46898;DHT22;32646;50.958;6.258;2023-06-22T04:48:06;20.40;99.90
46898;DHT22;32646;50.958;6.258;2023-06-22T04:50:33;20.50;99.90
46898;DHT22;32646;50.958;6.258;2023-06-22T04:53:00;20.50;99.90
46898;DHT22;32646;50.958;6.258;2023-06-22T04:55:26;20.50;99.90
46898;DHT22;32646;50.958;6.258;2023-06-22T04:57:53;20.40;99.90
46898;DHT22;32646;50.958;6.258;2023-06-22T05:00:20;20.40;99.90
46898;DHT22;32646;50.958;6.258;2023-06-22T05:02:46;20.40;99.90
46898;DHT22;32646;50.958;6.258;2023-06-22T05:05:14;20.50;99.90
46898;DHT22;32646;50.958;6.258;2023-06-22T05:07:45;20.60;99.90
46898;DHT22;32646;50.958;6.258;2023-06-22T05:10:12;20.60;99.90
46898;DHT22;32646;50.958;6.258;2023-06-22T05:12:40;20.60;99.90
46898;DHT22;32646;50.958;6.258;2023-06-22T05:15:08;20.60;99.90
46898;DHT22;32646;50.958;6.258;2023-06-22T05:17:35;20.50;99.90
46898;DHT22;32646;50.958;6.258;2023-06-22T05:20:03;20.50;99.90
46898;DHT22;32646;50.958;6.258;2023-06-22T05:22:29;20.50;99.90
46898;DHT22;32646;50.958;6.258;2023-06-22T05:24:56;20.40;99.90
46898;DHT22;32646;50.958;6.258;2023-06-22T05:27:22;20.50;99.90
46898;DHT22;32646;50.958;6.258;2023-06-22T05:29:49;20.50;99.90
46898;DHT22;32646;50.958;6.258;2023-06-22T05:32:16;20.50;99.90
46898;DHT22;32646;50.958;6.258;2023-06-22T05:34:42;20.50;99.90
46898;DHT22;32646;50.958;6.258;2023-06-22T05:37:09;20.50;99.90
46898;DHT22;32646;50.958;6.258;2023-06-22T05:39:35;20.50;99.90
46898;DHT22;32646;50.958;6.258;2023-06-22T05:42:02;20.50;99.90
46898;DHT22;32646;50.958;6.258;2023-06-22T05:44:29;20.60;99.90
46898;DHT22;32646;50.958;6.258;2023-06-22T05:46:55;20.80;99.90
46898;DHT22;32646;50.958;6.258;2023-06-22T05:49:22;20.80;99.90
46898;DHT22;32646;50.958;6.258;2023-06-22T05:51:48;20.80;99.90
46898;DHT22;32646;50.958;6.258;2023-06-22T05:54:15;20.90;99.90
46898;DHT22;32646;50.958;6.258;2023-06-22T05:56:42;21.00;99.90
46898;DHT22;32646;50.958;6.258;2023-06-22T05:59:08;20.90;99.90
46898;DHT22;32646;50.958;6.258;2023-06-22T06:01:35;20.90;99.90
46898;DHT22;32646;50.958;6.258;2023-06-22T06:04:04;21.00;99.90
46898;DHT22;32646;50.958;6.258;2023-06-22T06:06:31;21.10;99.90
46898;DHT22;32646;50.958;6.258;2023-06-22T06:08:58;21.10;99.90
46898;DHT22;32646;50.958;6.258;2023-06-22T06:11:25;21.00;99.90
46898;DHT22;32646;50.958;6.258;2023-06-22T06:13:51;21.00;99.90
46898;DHT22;32646;50.958;6.258;2023-06-22T06:16:18;21.10;99.90
46898;DHT22;32646;50.958;6.258;2023-06-22T06:18:44;21.20;99.90
46898;DHT22;32646;50.958;6.258;2023-06-22T06:21:11;21.20;99.90
46898;DHT22;32646;50.958;6.258;2023-06-22T06:23:38;21.30;99.90
46898;DHT22;32646;50.958;6.258;2023-06-22T06:26:04;21.30;99.90
46898;DHT22;32646;50.958;6.258;2023-06-22T06:28:31;21.40;99.90
46898;DHT22;32646;50.958;6.258;2023-06-22T06:30:58;21.30;99.90
46898;DHT22;32646;50.958;6.258;2023-06-22T06:33:24;21.40;99.90
46898;DHT22;32646;50.958;6.258;2023-06-22T06:35:51;21.50;99.90
46898;DHT22;32646;50.958;6.258;2023-06-22T06:38:18;21.50;99.90
46898;DHT22;32646;50.958;6.258;2023-06-22T06:40:45;21.60;99.90
46898;DHT22;32646;50.958;6.258;2023-06-22T06:43:11;21.60;99.90
46898;DHT22;32646;50.958;6.258;2023-06-22T06:45:38;21.60;99.90
46898;DHT22;32646;50.958;6.258;2023-06-22T06:48:05;21.70;99.90
46898;DHT22;32646;50.958;6.258;2023-06-22T06:50:31;21.80;99.90
46898;DHT22;32646;50.958;6.258;2023-06-22T06:52:59;21.90;99.90
46898;DHT22;32646;50.958;6.258;2023-06-22T06:55:25;22.10;99.90
46898;DHT22;32646;50.958;6.258;2023-06-22T06:57:52;22.30;99.90
46898;DHT22;32646;50.958;6.258;2023-06-22T07:00:19;22.30;99.40
46898;DHT22;32646;50.958;6.258;2023-06-22T07:02:46;22.40;99.90
46898;DHT22;32646;50.958;6.258;2023-06-22T07:05:12;22.30;99.90
46898;DHT22;32646;50.958;6.258;2023-06-22T07:07:39;22.20;99.90
46898;DHT22;32646;50.958;6.258;2023-06-22T07:10:06;22.20;99.90
46898;DHT22;32646;50.958;6.258;2023-06-22T07:12:34;22.40;99.90
46898;DHT22;32646;50.958;6.258;2023-06-22T07:15:08;22.60;99.90
46898;DHT22;32646;50.958;6.258;2023-06-22T07:17:36;22.70;99.70
46898;DHT22;32646;50.958;6.258;2023-06-22T07:20:03;22.70;98.90
46898;DHT22;32646;50.958;6.258;2023-06-22T07:22:30;22.80;99.90
46898;DHT22;32646;50.958;6.258;2023-06-22T07:24:57;23.00;99.90
46898;DHT22;32646;50.958;6.258;2023-06-22T07:27:23;22.90;98.70
46898;DHT22;32646;50.958;6.258;2023-06-22T07:29:50;22.80;98.70
46898;DHT22;32646;50.958;6.258;2023-06-22T07:32:17;22.90;98.30
46898;DHT22;32646;50.958;6.258;2023-06-22T07:34:43;22.90;99.90
46898;DHT22;32646;50.958;6.258;2023-06-22T07:37:10;23.30;99.80
46898;DHT22;32646;50.958;6.258;2023-06-22T07:39:36;23.40;97.80
46898;DHT22;32646;50.958;6.258;2023-06-22T07:42:03;23.40;96.90
46898;DHT22;32646;50.958;6.258;2023-06-22T07:44:30;23.30;95.80
46898;DHT22;32646;50.958;6.258;2023-06-22T07:46:57;23.40;97.50
46898;DHT22;32646;50.958;6.258;2023-06-22T07:49:23;23.70;94.10
46898;DHT22;32646;50.958;6.258;2023-06-22T07:51:50;24.10;95.90
46898;DHT22;32646;50.958;6.258;2023-06-22T07:54:16;24.20;93.80
46898;DHT22;32646;50.958;6.258;2023-06-22T07:56:43;24.40;92.00
46898;DHT22;32646;50.958;6.258;2023-06-22T07:59:09;24.10;92.20
46898;DHT22;32646;50.958;6.258;2023-06-22T08:01:36;24.30;93.00
46898;DHT22;32646;50.958;6.258;2023-06-22T08:04:03;24.50;92.80
46898;DHT22;32646;50.958;6.258;2023-06-22T08:06:30;24.70;92.10
46898;DHT22;32646;50.958;6.258;2023-06-22T08:08:57;24.80;90.70
46898;DHT22;32646;50.958;6.258;2023-06-22T08:11:23;24.80;90.50
46898;DHT22;32646;50.958;6.258;2023-06-22T08:13:50;25.10;89.40
46898;DHT22;32646;50.958;6.258;2023-06-22T08:16:16;25.30;90.50
46898;DHT22;32646;50.958;6.258;2023-06-22T08:18:43;25.40;90.10
46898;DHT22;32646;50.958;6.258;2023-06-22T08:21:10;26.20;84.00
46898;DHT22;32646;50.958;6.258;2023-06-22T08:23:36;26.50;81.30
46898;DHT22;32646;50.958;6.258;2023-06-22T08:26:03;27.00;79.50
46898;DHT22;32646;50.958;6.258;2023-06-22T08:28:29;27.40;76.30
46898;DHT22;32646;50.958;6.258;2023-06-22T08:30:56;27.50;73.60
46898;DHT22;32646;50.958;6.258;2023-06-22T08:33:22;27.20;73.30
46898;DHT22;32646;50.958;6.258;2023-06-22T08:35:58;27.80;75.60
46898;DHT22;32646;50.958;6.258;2023-06-22T08:38:25;28.00;76.20
46898;DHT22;32646;50.958;6.258;2023-06-22T08:40:51;27.00;75.60
46898;DHT22;32646;50.958;6.258;2023-06-22T08:43:18;27.20;78.80
46898;DHT22;32646;50.958;6.258;2023-06-22T08:45:44;26.70;78.10
46898;DHT22;32646;50.958;6.258;2023-06-22T08:48:11;26.50;80.30
46898;DHT22;32646;50.958;6.258;2023-06-22T08:50:38;26.70;81.00
46898;DHT22;32646;50.958;6.258;2023-06-22T08:53:04;25.90;82.10
46898;DHT22;32646;50.958;6.258;2023-06-22T08:55:31;26.40;86.10
46898;DHT22;32646;50.958;6.258;2023-06-22T08:57:58;27.10;81.10
46898;DHT22;32646;50.958;6.258;2023-06-22T09:00:25;26.90;78.80
46898;DHT22;32646;50.958;6.258;2023-06-22T09:02:51;27.30;80.30
46898;DHT22;32646;50.958;6.258;2023-06-22T09:05:18;27.60;74.20
46898;DHT22;32646;50.958;6.258;2023-06-22T09:07:45;27.60;77.30
46898;DHT22;32646;50.958;6.258;2023-06-22T09:10:11;27.80;76.40
46898;DHT22;32646;50.958;6.258;2023-06-22T09:12:39;27.90;74.60
46898;DHT22;32646;50.958;6.258;2023-06-22T09:15:06;28.50;74.30
46898;DHT22;32646;50.958;6.258;2023-06-22T09:17:36;28.80;72.10
46898;DHT22;32646;50.958;6.258;2023-06-22T09:20:03;29.30;69.80
46898;DHT22;32646;50.958;6.258;2023-06-22T09:22:32;29.40;70.30
46898;DHT22;32646;50.958;6.258;2023-06-22T09:24:59;29.40;68.70
46898;DHT22;32646;50.958;6.258;2023-06-22T09:27:26;29.20;66.60
46898;DHT22;32646;50.958;6.258;2023-06-22T09:29:52;29.10;68.30
46898;DHT22;32646;50.958;6.258;2023-06-22T09:32:19;28.70;68.60
46898;DHT22;32646;50.958;6.258;2023-06-22T09:34:45;28.30;70.90
46898;DHT22;32646;50.958;6.258;2023-06-22T09:37:12;27.80;71.80
46898;DHT22;32646;50.958;6.258;2023-06-22T09:39:38;27.20;73.20
46898;DHT22;32646;50.958;6.258;2023-06-22T09:42:05;27.20;74.10
46898;DHT22;32646;50.958;6.258;2023-06-22T09:44:32;26.80;77.10
46898;DHT22;32646;50.958;6.258;2023-06-22T09:46:59;26.50;78.30
46898;DHT22;32646;50.958;6.258;2023-06-22T09:49:26;26.10;83.50
46898;DHT22;32646;50.958;6.258;2023-06-22T09:52:12;25.90;85.90
46898;DHT22;32646;50.958;6.258;2023-06-22T09:54:39;25.50;90.60
46898;DHT22;32646;50.958;6.258;2023-06-22T09:57:06;25.40;91.10
46898;DHT22;32646;50.958;6.258;2023-06-22T09:59:32;25.20;92.10
46898;DHT22;32646;50.958;6.258;2023-06-22T10:01:59;25.00;93.50
46898;DHT22;32646;50.958;6.258;2023-06-22T10:04:26;24.90;95.00
46898;DHT22;32646;50.958;6.258;2023-06-22T10:06:53;24.90;94.70
46898;DHT22;32646;50.958;6.258;2023-06-22T10:09:19;24.80;96.20
46898;DHT22;32646;50.958;6.258;2023-06-22T10:11:46;24.80;97.60
46898;DHT22;32646;50.958;6.258;2023-06-22T10:14:12;24.80;97.50
46898;DHT22;32646;50.958;6.258;2023-06-22T10:16:39;24.80;99.90
46898;DHT22;32646;50.958;6.258;2023-06-22T10:19:06;24.60;99.90
46898;DHT22;32646;50.958;6.258;2023-06-22T10:21:32;24.20;99.90
46898;DHT22;32646;50.958;6.258;2023-06-22T10:23:59;23.30;99.90
46898;DHT22;32646;50.958;6.258;2023-06-22T10:26:26;22.90;99.90
46898;DHT22;32646;50.958;6.258;2023-06-22T10:28:54;22.40;99.90
46898;DHT22;32646;50.958;6.258;2023-06-22T10:31:41;22.10;99.90
46898;DHT22;32646;50.958;6.258;2023-06-22T10:34:07;21.80;99.90
46898;DHT22;32646;50.958;6.258;2023-06-22T10:36:34;21.60;99.90
46898;DHT22;32646;50.958;6.258;2023-06-22T10:39:00;21.50;99.90
46898;DHT22;32646;50.958;6.258;2023-06-22T10:41:27;21.40;99.90
46898;DHT22;32646;50.958;6.258;2023-06-22T10:43:53;21.40;99.90
46898;DHT22;32646;50.958;6.258;2023-06-22T10:46:20;21.60;99.90
46898;DHT22;32646;50.958;6.258;2023-06-22T10:48:46;21.60;99.90
46898;DHT22;32646;50.958;6.258;2023-06-22T10:51:13;21.60;99.90
46898;DHT22;32646;50.958;6.258;2023-06-22T10:53:41;21.70;99.90
46898;DHT22;32646;50.958;6.258;2023-06-22T10:56:07;21.60;99.90
46898;DHT22;32646;50.958;6.258;2023-06-22T10:58:34;21.60;99.90
46898;DHT22;32646;50.958;6.258;2023-06-22T11:01:00;21.60;99.90
46898;DHT22;32646;50.958;6.258;2023-06-22T11:03:27;21.60;99.90
46898;DHT22;32646;50.958;6.258;2023-06-22T11:05:54;21.60;99.90
46898;DHT22;32646;50.958;6.258;2023-06-22T11:08:21;21.80;99.90
46898;DHT22;32646;50.958;6.258;2023-06-22T11:10:50;21.80;99.90
46898;DHT22;32646;50.958;6.258;2023-06-22T11:13:17;21.80;99.90
46898;DHT22;32646;50.958;6.258;2023-06-22T11:15:44;21.80;99.90
46898;DHT22;32646;50.958;6.258;2023-06-22T11:18:10;21.70;99.90
46898;DHT22;32646;50.958;6.258;2023-06-22T11:20:37;22.00;99.90
46898;DHT22;32646;50.958;6.258;2023-06-22T11:23:07;22.10;99.90
46898;DHT22;32646;50.958;6.258;2023-06-22T11:25:34;22.10;99.90
46898;DHT22;32646;50.958;6.258;2023-06-22T11:28:02;22.20;99.90
46898;DHT22;32646;50.958;6.258;2023-06-22T11:30:29;22.30;99.90
46898;DHT22;32646;50.958;6.258;2023-06-22T11:32:58;22.10;99.90
46898;DHT22;32646;50.958;6.258;2023-06-22T11:35:25;22.60;99.90
46898;DHT22;32646;50.958;6.258;2023-06-22T11:37:52;23.00;99.90
46898;DHT22;32646;50.958;6.258;2023-06-22T11:40:18;23.60;99.90
46898;DHT22;32646;50.958;6.258;2023-06-22T11:42:45;24.00;99.90
46898;DHT22;32646;50.958;6.258;2023-06-22T11:45:11;23.90;99.90
46898;DHT22;32646;50.958;6.258;2023-06-22T11:47:38;23.80;99.90
46898;DHT22;32646;50.958;6.258;2023-06-22T11:50:05;23.40;99.90
46898;DHT22;32646;50.958;6.258;2023-06-22T11:52:33;23.30;99.90
46898;DHT22;32646;50.958;6.258;2023-06-22T11:55:00;23.50;99.90
46898;DHT22;32646;50.958;6.258;2023-06-22T11:57:27;23.50;99.90
46898;DHT22;32646;50.958;6.258;2023-06-22T11:59:53;23.50;99.90
46898;DHT22;32646;50.958;6.258;2023-06-22T12:02:20;23.60;99.90
46898;DHT22;32646;50.958;6.258;2023-06-22T12:04:46;23.30;99.90
46898;DHT22;32646;50.958;6.258;2023-06-22T12:07:13;23.20;99.90
46898;DHT22;32646;50.958;6.258;2023-06-22T12:09:39;23.20;99.90
46898;DHT22;32646;50.958;6.258;2023-06-22T12:12:06;23.10;99.90
46898;DHT22;32646;50.958;6.258;2023-06-22T12:14:33;23.20;99.90
46898;DHT22;32646;50.958;6.258;2023-06-22T12:17:00;23.10;99.90
46898;DHT22;32646;50.958;6.258;2023-06-22T12:19:26;23.10;99.90
46898;DHT22;32646;50.958;6.258;2023-06-22T12:21:53;23.10;99.90
46898;DHT22;32646;50.958;6.258;2023-06-22T12:24:19;23.30;99.90
46898;DHT22;32646;50.958;6.258;2023-06-22T12:26:46;23.50;99.90
46898;DHT22;32646;50.958;6.258;2023-06-22T12:29:13;23.80;99.90
46898;DHT22;32646;50.958;6.258;2023-06-22T12:31:39;23.90;99.90
46898;DHT22;32646;50.958;6.258;2023-06-22T12:34:06;24.00;99.90
46898;DHT22;32646;50.958;6.258;2023-06-22T12:36:33;24.00;99.90
46898;DHT22;32646;50.958;6.258;2023-06-22T12:38:59;24.10;99.90
46898;DHT22;32646;50.958;6.258;2023-06-22T12:41:26;24.20;99.90
46898;DHT22;32646;50.958;6.258;2023-06-22T12:43:53;24.40;99.90
46898;DHT22;32646;50.958;6.258;2023-06-22T12:46:19;24.60;99.90
46898;DHT22;32646;50.958;6.258;2023-06-22T12:48:46;24.50;99.90
46898;DHT22;32646;50.958;6.258;2023-06-22T12:51:19;24.40;99.90
46898;DHT22;32646;50.958;6.258;2023-06-22T12:53:46;24.20;99.90
46898;DHT22;32646;50.958;6.258;2023-06-22T12:56:12;24.10;99.90
46898;DHT22;32646;50.958;6.258;2023-06-22T12:58:39;24.20;99.90
46898;DHT22;32646;50.958;6.258;2023-06-22T13:01:05;24.30;99.90
46898;DHT22;32646;50.958;6.258;2023-06-22T13:03:32;24.50;99.90
46898;DHT22;32646;50.958;6.258;2023-06-22T13:05:59;24.70;99.90
46898;DHT22;32646;50.958;6.258;2023-06-22T13:08:25;24.70;99.90
46898;DHT22;32646;50.958;6.258;2023-06-22T13:11:12;25.00;99.90
46898;DHT22;32646;50.958;6.258;2023-06-22T13:13:39;25.20;99.90
46898;DHT22;32646;50.958;6.258;2023-06-22T13:16:07;25.30;99.90
46898;DHT22;32646;50.958;6.258;2023-06-22T13:18:34;25.30;99.90
46898;DHT22;32646;50.958;6.258;2023-06-22T13:21:00;25.10;99.90
46898;DHT22;32646;50.958;6.258;2023-06-22T13:23:27;25.00;99.90
46898;DHT22;32646;50.958;6.258;2023-06-22T13:25:54;24.60;99.90
46898;DHT22;32646;50.958;6.258;2023-06-22T13:28:20;24.50;99.90
46898;DHT22;32646;50.958;6.258;2023-06-22T13:30:54;24.30;99.90
46898;DHT22;32646;50.958;6.258;2023-06-22T13:33:21;24.00;99.90
46898;DHT22;32646;50.958;6.258;2023-06-22T13:35:48;23.90;99.90
46898;DHT22;32646;50.958;6.258;2023-06-22T13:38:15;24.00;99.90
46898;DHT22;32646;50.958;6.258;2023-06-22T13:40:41;23.80;99.90
46898;DHT22;32646;50.958;6.258;2023-06-22T13:43:08;23.60;99.90
46898;DHT22;32646;50.958;6.258;2023-06-22T13:45:35;23.50;99.90
46898;DHT22;32646;50.958;6.258;2023-06-22T13:48:02;23.50;99.90
46898;DHT22;32646;50.958;6.258;2023-06-22T13:50:28;23.50;99.90
46898;DHT22;32646;50.958;6.258;2023-06-22T13:52:55;23.40;99.90
46898;DHT22;32646;50.958;6.258;2023-06-22T13:55:22;23.20;99.90
46898;DHT22;32646;50.958;6.258;2023-06-22T13:57:49;23.10;99.90
46898;DHT22;32646;50.958;6.258;2023-06-22T14:00:16;23.20;99.90
46898;DHT22;32646;50.958;6.258;2023-06-22T14:02:42;23.20;99.90
46898;DHT22;32646;50.958;6.258;2023-06-22T14:05:09;23.30;99.90
46898;DHT22;32646;50.958;6.258;2023-06-22T14:07:36;23.10;99.90
46898;DHT22;32646;50.958;6.258;2023-06-22T14:10:03;23.00;99.90
46898;DHT22;32646;50.958;6.258;2023-06-22T14:12:30;23.00;99.90
46898;DHT22;32646;50.958;6.258;2023-06-22T14:14:56;22.90;99.90
46898;DHT22;32646;50.958;6.258;2023-06-22T14:17:23;22.80;99.90
46898;DHT22;32646;50.958;6.258;2023-06-22T14:19:50;22.80;99.90
46898;DHT22;32646;50.958;6.258;2023-06-22T14:22:16;22.80;99.90
46898;DHT22;32646;50.958;6.258;2023-06-22T14:24:43;22.80;99.90
46898;DHT22;32646;50.958;6.258;2023-06-22T14:27:09;22.80;99.90
46898;DHT22;32646;50.958;6.258;2023-06-22T14:29:39;22.80;99.90
46898;DHT22;32646;50.958;6.258;2023-06-22T14:32:07;22.70;99.90
46898;DHT22;32646;50.958;6.258;2023-06-22T14:34:34;22.60;99.90
46898;DHT22;32646;50.958;6.258;2023-06-22T14:37:01;22.50;99.90
46898;DHT22;32646;50.958;6.258;2023-06-22T14:39:27;22.50;99.90
46898;DHT22;32646;50.958;6.258;2023-06-22T14:41:54;22.50;99.90
46898;DHT22;32646;50.958;6.258;2023-06-22T14:44:20;22.50;99.90
46898;DHT22;32646;50.958;6.258;2023-06-22T14:46:47;22.50;99.90
46898;DHT22;32646;50.958;6.258;2023-06-22T14:49:14;22.50;99.90
46898;DHT22;32646;50.958;6.258;2023-06-22T14:51:40;22.50;99.90
46898;DHT22;32646;50.958;6.258;2023-06-22T14:54:07;22.50;99.90
46898;DHT22;32646;50.958;6.258;2023-06-22T14:56:33;22.40;99.90
46898;DHT22;32646;50.958;6.258;2023-06-22T14:59:00;22.30;99.90
46898;DHT22;32646;50.958;6.258;2023-06-22T15:01:27;22.30;99.90
46898;DHT22;32646;50.958;6.258;2023-06-22T15:03:53;22.30;99.90
46898;DHT22;32646;50.958;6.258;2023-06-22T15:06:21;22.30;99.90
46898;DHT22;32646;50.958;6.258;2023-06-22T15:08:48;22.20;99.90
46898;DHT22;32646;50.958;6.258;2023-06-22T15:11:14;22.00;99.90
46898;DHT22;32646;50.958;6.258;2023-06-22T15:13:41;21.70;99.90
46898;DHT22;32646;50.958;6.258;2023-06-22T15:16:08;21.40;99.90
46898;DHT22;32646;50.958;6.258;2023-06-22T15:18:35;21.10;99.90
46898;DHT22;32646;50.958;6.258;2023-06-22T15:21:03;20.90;99.90
46898;DHT22;32646;50.958;6.258;2023-06-22T15:23:31;20.90;99.90
46898;DHT22;32646;50.958;6.258;2023-06-22T15:25:59;20.80;99.90
46898;DHT22;32646;50.958;6.258;2023-06-22T15:28:28;20.80;99.90
46898;DHT22;32646;50.958;6.258;2023-06-22T15:30:55;20.70;99.90
46898;DHT22;32646;50.958;6.258;2023-06-22T15:33:22;20.60;99.90